HBD weather

Pemex Southern Region Administrative Technical Center Helipad
Villahermosa, Tabasco, Mexico

Public forecast

Using degrees Celsius for public forecast. Weather courtesy of forecast.io.

Closest aviation weather report (METAR) to Pemex Southern Region Administrative Technical Center Helipad

Closest report is Carlos Rovirosa Pérez International Airport, 7.9 nm (14.6 km) E. Retrieved 2020/02/23 22:43 UTC (19 minutes ago):

MMVA 232243Z 08008KT 7SM SCT018 27/16 A2998 RMK 8/100

Closest aviation forecast (TAF) to Pemex Southern Region Administrative Technical Center Helipad

Closest forecast is Carlos Rovirosa Pérez International Airport, 7.9 nm (14.6 km) E. Retrieved 2020/02/23 18:00 UTC (5 hours ago):

TAF MMVA 231657Z 2318/2418 10015KT SCT015 BKN050 FM240300 00000KT 3SM BR OVC005 FM241200 00000KT 1SM BR OVC002 FM241600 12010KT 3SM BR SCT005 OVC015